Bellingham, WA

11:12 AM PDT on April 19, 2015 (GMT -0700)
Whidbey Island Naval Air Station | | Change Station
CLOSE
Current Station
Airport
Location: Whidbey Island,
Elevation: 46 ft
Nearby Weather Stations

Elev 46 ft 48.35 °N, 122.66 °W | Updated 16 minutes ago

Partly Cloudy
Partly Cloudy
56 °F
Feels Like 56 °F
N
7
Wind Variable Wind from West

Today
High -- | Low -- °F
--% Chance of Precip.
Yesterday
High -- | Low -- °F
Precip. -- in
6:11 AM 8:07 PM
New Moon, 1% visible
Pressure 30.22 in
Visibility 10.0 miles
Clouds Few 20000 ft
Dew Point 46 °F
Humidity 69%
Rainfall 0.00 in
Snow Depth Not available.
UV 6 out of 12
Pollen 9.40 out of 12
Air Quality Not available.
Flu Activity Regional
METAR KNUW 191756Z 27006KT 10SM FEW200 13/08 A3021 RMK AO2 SLP233 T01330078 10133 20044 58009 VISNO E $

More Conditions Fewer Conditions

Pressure 30.22 in
Visibility 10.0 miles
Clouds Few 20000 ft
Dew Point 46 °F
Humidity 69%
Rainfall 0.00 in
Snow Depth Not available.
UV 6 out of 12
Pollen 9.40 out of 12
Air Quality Not available.
Flu Activity Regional
METAR KNUW 191756Z 27006KT 10SM FEW200 13/08 A3021 RMK AO2 SLP233 T01330078 10133 20044 58009 VISNO E $

More Conditions Fewer Conditions

10-Day Weather Forecast

Almanac

Astronomy

Apr. 19, 2015 Rise Set
Actual Time
Civil Twilight
Nautical Twilight
Astronomical Twilight
Moon
Length of Visible Light
Length of Day
Tomorrow will be .
, % of the Moon is Illuminated

Today's Extremes

State Highs State Lows

Community

WunderPhotos

Upload Photos

1,814,894 photos uploaded!

WunderBlogs® & News

Nearby

Air Quality

  Air Quality AQ Index Pollutant
Not available.

Snow Depth

Station Depth Elevation

Earthquake Activity

City Distance Mag. Time & Date
Minimum magnitude displayed is 2.5.

Coastal Water Temperatures

Place Temperature

Stations

Nearby Weather Stations

Station Location Temp. Windchill Dew Point Humidity Wind Precip. Elev Updated Type